createdAt,value
2018-08-03T00:01:22.543Z,57.20
2018-08-03T00:03:50.803Z,38.10
2018-08-03T00:06:19.111Z,52.97
2018-08-03T00:08:47.342Z,48.17
2018-08-03T00:11:15.590Z,41.97
2018-08-03T00:13:43.984Z,49.83
2018-08-03T00:16:12.290Z,47.67
2018-08-03T00:18:40.526Z,42.63
2018-08-03T00:21:08.891Z,45.00
2018-08-03T00:23:37.103Z,47.30
2018-08-03T00:26:05.355Z,45.43
2018-08-03T00:28:33.554Z,50.87
2018-08-03T00:31:01.832Z,44.10
2018-08-03T00:33:30.175Z,43.83
2018-08-03T00:35:58.486Z,41.40
2018-08-03T00:38:26.714Z,45.33
2018-08-03T00:40:54.936Z,40.70
2018-08-03T00:43:23.294Z,47.53
2018-08-03T00:45:51.551Z,43.23
2018-08-03T00:48:19.782Z,52.07
2018-08-03T00:50:48.172Z,47.23
2018-08-03T00:53:16.399Z,41.03
2018-08-03T00:55:44.661Z,50.93
2018-08-03T00:58:12.912Z,40.03
2018-08-03T01:00:41.178Z,43.87
2018-08-03T01:03:09.671Z,48.50
2018-08-03T01:05:37.959Z,42.40
2018-08-03T01:08:06.252Z,44.23
2018-08-03T01:10:34.467Z,45.77
2018-08-03T01:13:02.715Z,46.90
2018-08-03T01:15:31.002Z,44.97
2018-08-03T01:17:59.238Z,38.87
2018-08-03T01:20:27.506Z,39.60
2018-08-03T01:22:55.755Z,38.23
2018-08-03T01:25:23.992Z,43.27
2018-08-03T01:27:52.242Z,44.30
2018-08-03T01:30:20.514Z,36.70
2018-08-03T01:32:48.826Z,43.67
2018-08-03T01:35:17.108Z,36.87
2018-08-03T01:37:45.442Z,40.70
2018-08-03T01:40:14.428Z,41.77
2018-08-03T01:42:42.671Z,41.60
2018-08-03T01:45:10.987Z,38.63
2018-08-03T01:47:39.207Z,48.30
2018-08-03T01:50:07.489Z,40.10
2018-08-03T01:52:35.726Z,55.13
2018-08-03T01:55:03.991Z,36.20
2018-08-03T01:57:32.256Z,44.83
2018-08-03T02:00:00.504Z,44.53
2018-08-03T02:02:28.807Z,44.23
2018-08-03T02:04:57.024Z,41.37
2018-08-03T02:07:25.248Z,40.33
2018-08-03T02:09:53.818Z,40.80
2018-08-03T02:12:22.055Z,42.80
2018-08-03T02:14:50.280Z,46.33
2018-08-03T02:17:18.517Z,52.30
2018-08-03T02:19:46.735Z,41.37
2018-08-03T02:22:14.980Z,38.77
2018-08-03T02:24:43.287Z,44.50
2018-08-03T02:27:11.514Z,40.30
2018-08-03T02:29:39.739Z,44.43
2018-08-03T02:32:08.015Z,39.70
2018-08-03T02:34:36.343Z,45.30
2018-08-03T02:37:04.558Z,36.83
2018-08-03T02:39:32.831Z,42.20
2018-08-03T02:42:01.058Z,46.40
2018-08-03T02:44:32.740Z,50.20
2018-08-03T02:47:01.135Z,48.70
2018-08-03T02:49:29.347Z,41.70
2018-08-03T02:51:57.564Z,35.93
2018-08-03T02:54:25.771Z,36.80
2018-08-03T02:56:54.031Z,40.53
2018-08-03T02:59:22.253Z,42.80
2018-08-03T03:01:50.502Z,47.97
2018-08-03T03:04:18.747Z,43.60
2018-08-03T03:06:46.962Z,38.63
2018-08-03T03:09:15.291Z,46.30
2018-08-03T03:11:43.498Z,44.60
2018-08-03T03:14:11.723Z,45.60
2018-08-03T03:16:40.035Z,39.83
2018-08-03T03:19:08.243Z,37.90
2018-08-03T03:21:36.459Z,47.70
2018-08-03T03:24:04.823Z,47.47
2018-08-03T03:26:33.050Z,42.77
2018-08-03T03:29:01.346Z,40.67
2018-08-03T03:31:29.658Z,48.73
2018-08-03T03:33:57.890Z,45.30
2018-08-03T03:36:26.101Z,59.40
2018-08-03T03:38:54.314Z,65.23
2018-08-03T03:41:22.538Z,43.63
2018-08-03T03:43:51.190Z,46.30
2018-08-03T03:46:19.455Z,50.70
2018-08-03T03:48:47.819Z,51.30
2018-08-03T03:51:16.072Z,50.03
2018-08-03T03:53:44.323Z,44.73
2018-08-03T03:56:12.885Z,49.57
2018-08-03T03:58:41.167Z,46.27
2018-08-03T04:01:09.443Z,43.63
2018-08-03T04:03:37.731Z,44.67
2018-08-03T04:06:06.069Z,50.13
2018-08-03T04:08:34.296Z,41.70
2018-08-03T04:11:02.575Z,45.53
2018-08-03T04:13:30.846Z,46.20
2018-08-03T04:15:59.286Z,45.23
2018-08-03T04:18:27.558Z,55.23
2018-08-03T04:20:55.778Z,58.43
2018-08-03T04:23:24.131Z,41.63
2018-08-03T04:25:52.418Z,51.70
2018-08-03T04:28:20.662Z,51.67
2018-08-03T04:30:48.894Z,45.37
2018-08-03T04:33:17.186Z,46.87
2018-08-03T04:35:45.486Z,47.97
2018-08-03T04:38:13.800Z,49.77
2018-08-03T04:40:42.066Z,44.70
2018-08-03T04:43:10.353Z,48.73
2018-08-03T04:45:38.574Z,51.83
2018-08-03T04:48:06.805Z,42.77
2018-08-03T04:50:35.039Z,42.03
2018-08-03T04:53:03.275Z,46.50
2018-08-03T04:55:31.535Z,47.67
2018-08-03T04:57:59.760Z,49.13
2018-08-03T05:00:28.015Z,43.97
2018-08-03T05:02:56.300Z,59.10
2018-08-03T05:05:24.571Z,45.20
2018-08-03T05:07:53.227Z,48.40
2018-08-03T05:10:21.471Z,46.00
2018-08-03T05:12:49.711Z,53.10
2018-08-03T05:15:17.990Z,45.37
2018-08-03T05:17:46.210Z,44.20
2018-08-03T05:20:14.415Z,53.27
2018-08-03T05:22:42.640Z,52.00
2018-08-03T05:25:10.906Z,49.63
2018-08-03T05:27:39.152Z,52.47
2018-08-03T05:30:08.622Z,54.90
2018-08-03T05:32:37.095Z,49.20
2018-08-03T05:35:05.949Z,55.03
2018-08-03T05:37:34.183Z,50.50
2018-08-03T05:40:02.468Z,53.50
2018-08-03T05:42:30.753Z,48.83
2018-08-03T05:44:58.970Z,47.20
2018-08-03T05:47:27.232Z,46.23
2018-08-03T05:49:55.450Z,60.47
2018-08-03T05:52:23.893Z,51.57
2018-08-03T05:54:52.107Z,51.00
2018-08-03T05:57:20.322Z,49.97
2018-08-03T05:59:48.586Z,57.87
2018-08-03T06:02:16.839Z,51.63
2018-08-03T06:04:45.063Z,46.03
2018-08-03T06:07:13.299Z,57.90
2018-08-03T06:09:41.561Z,49.03
2018-08-03T06:12:09.767Z,55.33
2018-08-03T06:14:37.993Z,58.80
2018-08-03T06:17:06.293Z,52.97
2018-08-03T06:19:34.523Z,64.53
2018-08-03T06:22:02.806Z,49.30
2018-08-03T06:24:31.673Z,49.20
2018-08-03T06:26:59.990Z,62.40
2018-08-03T06:29:28.282Z,70.73
2018-08-03T06:31:56.462Z,68.13
2018-08-03T06:34:24.673Z,63.50
2018-08-03T06:36:53.046Z,58.40
2018-08-03T06:39:21.272Z,62.30
2018-08-03T06:41:49.851Z,53.30
2018-08-03T06:44:18.115Z,52.23
2018-08-03T06:46:46.371Z,51.40
2018-08-03T06:49:14.606Z,51.30
2018-08-03T06:51:42.834Z,52.57
2018-08-03T06:54:11.083Z,59.03
2018-08-03T06:56:39.299Z,44.40
2018-08-03T06:59:07.526Z,61.47
2018-08-03T07:01:35.755Z,57.90
2018-08-03T07:04:04.086Z,52.00
2018-08-03T07:06:32.330Z,52.10
2018-08-03T07:09:00.562Z,50.60
2018-08-03T07:11:28.906Z,47.07
2018-08-03T07:13:57.154Z,49.37
2018-08-03T07:16:25.372Z,49.00
2018-08-03T07:18:53.598Z,42.43
2018-08-03T07:21:27.254Z,44.77
2018-08-03T07:23:56.151Z,39.30
2018-08-03T07:26:24.427Z,50.80
2018-08-03T07:28:52.904Z,44.30
2018-08-03T07:31:21.169Z,57.30
2018-08-03T07:33:49.816Z,37.30
2018-08-03T07:36:18.047Z,44.57
2018-08-03T07:38:46.370Z,41.23
2018-08-03T07:41:14.588Z,35.70
2018-08-03T07:43:42.827Z,42.13
2018-08-03T07:46:11.107Z,41.87
2018-08-03T07:48:39.403Z,41.40
2018-08-03T07:51:07.676Z,37.17
2018-08-03T07:53:35.883Z,38.43
2018-08-03T07:56:04.095Z,38.87
2018-08-03T07:58:32.306Z,45.47
2018-08-03T08:01:00.519Z,35.87
2018-08-03T08:03:28.755Z,52.73
2018-08-03T08:05:56.989Z,36.67
2018-08-03T08:08:25.221Z,48.47
2018-08-03T08:10:53.455Z,35.73
2018-08-03T08:13:21.695Z,36.83
2018-08-03T08:15:49.943Z,36.57
2018-08-03T08:18:18.149Z,37.83
2018-08-03T08:20:46.370Z,40.67
2018-08-03T08:23:14.610Z,42.50
2018-08-03T08:25:42.855Z,36.00
2018-08-03T08:28:11.317Z,41.73
2018-08-03T08:30:41.037Z,60.40
2018-08-03T08:33:09.302Z,34.33
2018-08-03T08:35:37.526Z,49.80
2018-08-03T08:38:05.899Z,39.50
2018-08-03T08:40:34.117Z,41.50
2018-08-03T08:43:02.327Z,38.83
2018-08-03T08:45:30.560Z,40.83
2018-08-03T08:47:58.854Z,40.50
2018-08-03T08:50:27.126Z,36.30
2018-08-03T08:52:55.392Z,37.10
2018-08-03T08:55:23.661Z,33.00
2018-08-03T08:57:51.890Z,34.33
2018-08-03T09:00:20.091Z,36.60
2018-08-03T09:02:48.341Z,39.23
2018-08-03T09:05:16.547Z,38.23
2018-08-03T09:07:44.800Z,34.03
2018-08-03T09:10:12.991Z,39.90
2018-08-03T09:12:41.225Z,38.93
2018-08-03T09:15:09.443Z,31.53
2018-08-03T09:17:37.651Z,35.40
2018-08-03T09:20:06.077Z,29.97
2018-08-03T09:22:34.295Z,37.13
2018-08-03T09:25:02.587Z,31.77
2018-08-03T09:27:30.839Z,38.10
2018-08-03T09:29:59.063Z,30.87
2018-08-03T09:32:27.278Z,29.70
2018-08-03T09:34:55.527Z,33.17
2018-08-03T09:37:23.774Z,36.13
2018-08-03T09:39:52.167Z,30.30
2018-08-03T09:42:20.419Z,32.10
2018-08-03T09:44:48.626Z,28.47
2018-08-03T09:47:16.863Z,35.57
2018-08-03T09:49:45.102Z,31.33
2018-08-03T09:52:13.415Z,31.10
2018-08-03T09:54:41.642Z,39.20
2018-08-03T09:57:09.912Z,31.60
2018-08-03T09:59:38.106Z,39.63
2018-08-03T10:02:06.330Z,35.67
2018-08-03T10:04:34.530Z,34.47
2018-08-03T10:07:02.742Z,40.53
2018-08-03T10:09:30.991Z,45.40
2018-08-03T10:11:59.191Z,33.10
2018-08-03T10:14:27.412Z,33.10
2018-08-03T10:16:55.617Z,29.07
2018-08-03T10:19:23.818Z,33.80
2018-08-03T10:21:52.206Z,36.67
2018-08-03T10:24:20.422Z,30.60
2018-08-03T10:26:48.636Z,29.40
2018-08-03T10:29:16.853Z,38.90
2018-08-03T10:31:45.080Z,31.80
2018-08-03T10:34:13.274Z,29.63
2018-08-03T10:36:41.493Z,33.70
2018-08-03T10:39:10.570Z,29.87
2018-08-03T10:41:39.804Z,32.13
2018-08-03T10:44:08.363Z,31.30
2018-08-03T10:46:36.660Z,31.87
2018-08-03T10:49:05.020Z,36.10
2018-08-03T10:51:33.231Z,32.90
2018-08-03T10:54:01.447Z,28.90
2018-08-03T10:56:29.663Z,30.60
2018-08-03T10:58:57.907Z,34.27
2018-08-03T11:01:26.236Z,29.80
2018-08-03T11:03:54.367Z,27.50
2018-08-03T11:06:22.579Z,32.17
2018-08-03T11:08:50.858Z,31.93
2018-08-03T11:11:19.066Z,25.67
2018-08-03T11:13:47.432Z,28.87
2018-08-03T11:16:15.502Z,32.00
2018-08-03T11:18:43.714Z,26.43
2018-08-03T11:21:16.378Z,24.27
2018-08-03T11:23:44.863Z,24.10
2018-08-03T11:26:13.111Z,28.63
2018-08-03T11:28:41.676Z,26.67
2018-08-03T11:31:09.895Z,26.40
2018-08-03T11:33:38.158Z,32.37
2018-08-03T11:36:06.370Z,27.03
2018-08-03T11:38:34.604Z,27.93
2018-08-03T11:41:02.817Z,32.07
2018-08-03T11:43:31.308Z,23.83
2018-08-03T11:45:59.550Z,20.50
2018-08-03T11:48:27.820Z,26.33
2018-08-03T11:50:56.035Z,23.10
2018-08-03T11:53:24.250Z,23.40
2018-08-03T11:55:52.538Z,22.90
2018-08-03T11:58:20.740Z,24.63
2018-08-03T12:00:49.019Z,25.87
2018-08-03T12:03:17.214Z,17.70
2018-08-03T12:05:45.483Z,29.20
2018-08-03T12:08:13.687Z,21.60
2018-08-03T12:10:41.895Z,25.63
2018-08-03T12:13:10.130Z,19.30
2018-08-03T12:15:38.327Z,21.03
2018-08-03T12:18:06.559Z,23.57
2018-08-03T12:20:34.779Z,21.20
2018-08-03T12:23:02.995Z,24.53
2018-08-03T12:25:31.239Z,27.93
2018-08-03T12:27:59.449Z,26.13
2018-08-03T12:30:27.699Z,20.80
2018-08-03T12:32:55.923Z,25.07
2018-08-03T12:35:24.147Z,24.93
2018-08-03T12:37:52.381Z,21.07
2018-08-03T12:40:20.609Z,28.57
2018-08-03T12:42:48.802Z,29.23
2018-08-03T12:45:17.018Z,21.53
2018-08-03T12:47:45.231Z,28.53
2018-08-03T12:50:13.481Z,23.33
2018-08-03T12:52:41.766Z,17.47
2018-08-03T12:55:09.884Z,21.50
2018-08-03T12:57:44.630Z,24.90
2018-08-03T13:00:12.859Z,21.37
2018-08-03T13:02:41.143Z,22.93
2018-08-03T13:05:09.311Z,18.93
2018-08-03T13:07:37.586Z,19.43
2018-08-03T13:10:05.803Z,27.03
2018-08-03T13:12:34.079Z,22.90
2018-08-03T13:15:02.286Z,24.50
2018-08-03T13:17:30.502Z,19.47
2018-08-03T13:19:58.730Z,20.40
2018-08-03T13:22:26.951Z,19.70
2018-08-03T13:24:55.337Z,27.60
2018-08-03T13:27:23.582Z,27.70
2018-08-03T13:29:51.807Z,21.57
2018-08-03T13:32:20.045Z,21.60
2018-08-03T13:34:48.246Z,18.83
2018-08-03T13:37:23.038Z,18.70
2018-08-03T13:39:51.260Z,19.67
2018-08-03T13:42:19.464Z,22.20
2018-08-03T13:44:47.749Z,24.17
2018-08-03T13:47:15.971Z,20.20
2018-08-03T13:49:44.208Z,20.50
2018-08-03T13:52:12.443Z,26.23
2018-08-03T13:54:40.679Z,22.63
2018-08-03T13:57:08.899Z,18.23
2018-08-03T13:59:37.113Z,23.20
2018-08-03T14:02:15.021Z,15.70
2018-08-03T14:04:43.267Z,30.43
2018-08-03T14:07:11.490Z,18.83
2018-08-03T14:09:39.743Z,19.40
2018-08-03T14:12:08.015Z,22.27
2018-08-03T14:14:36.200Z,17.77
2018-08-03T14:17:04.435Z,20.97
2018-08-03T14:19:32.658Z,19.90
2018-08-03T14:22:00.926Z,19.80
2018-08-03T14:24:29.136Z,19.20
2018-08-03T14:26:57.371Z,19.50
2018-08-03T14:29:25.606Z,17.77
2018-08-03T14:31:53.929Z,22.13
2018-08-03T14:34:22.045Z,21.97
2018-08-03T14:36:50.290Z,17.33
2018-08-03T14:39:18.586Z,24.43
2018-08-03T14:41:46.805Z,19.23
2018-08-03T14:44:15.019Z,20.20
2018-08-03T14:46:43.230Z,22.23
2018-08-03T14:49:11.463Z,18.13
2018-08-03T14:51:39.874Z,26.67
2018-08-03T14:54:08.218Z,22.17
2018-08-03T14:56:36.459Z,17.63
2018-08-03T14:59:04.674Z,27.70
2018-08-03T15:01:32.929Z,20.43
2018-08-03T15:04:01.188Z,20.17
2018-08-03T15:06:29.406Z,21.20
2018-08-03T15:08:57.615Z,24.87
2018-08-03T15:11:25.853Z,23.57
2018-08-03T15:13:54.094Z,25.50
2018-08-03T15:16:22.323Z,19.87
2018-08-03T15:18:50.543Z,18.33
2018-08-03T15:21:18.773Z,23.20
2018-08-03T15:23:47.004Z,16.17
2018-08-03T15:26:15.234Z,25.00
2018-08-03T15:28:43.458Z,24.53
2018-08-03T15:31:11.671Z,23.17
2018-08-03T15:33:39.895Z,18.83
2018-08-03T15:36:08.114Z,18.30
2018-08-03T15:38:37.388Z,19.63
2018-08-03T15:41:05.635Z,17.17
2018-08-03T15:43:33.852Z,20.20
2018-08-03T15:46:02.099Z,18.77
2018-08-03T15:48:30.311Z,21.60
2018-08-03T15:51:04.907Z,24.53
2018-08-03T15:53:33.131Z,19.63
2018-08-03T15:56:01.634Z,21.33
2018-08-03T15:58:29.891Z,21.93
2018-08-03T16:00:58.161Z,19.80
2018-08-03T16:03:26.382Z,17.70
2018-08-03T16:05:54.662Z,26.73
2018-08-03T16:08:22.901Z,22.90
2018-08-03T16:10:51.119Z,19.17
2018-08-03T16:13:19.323Z,17.67
2018-08-03T16:15:47.574Z,23.80
2018-08-03T16:18:15.883Z,25.60
2018-08-03T16:20:44.111Z,19.20
2018-08-03T16:23:12.332Z,19.40
2018-08-03T16:25:40.603Z,18.37
2018-08-03T16:28:08.804Z,27.43
2018-08-03T16:30:37.006Z,23.00
2018-08-03T16:33:05.265Z,21.13
2018-08-03T16:35:33.510Z,24.03
2018-08-03T16:38:01.811Z,18.90
2018-08-03T16:40:30.362Z,17.93
2018-08-03T16:42:58.667Z,24.70
2018-08-03T16:45:26.880Z,21.73
2018-08-03T16:47:55.099Z,21.00
2018-08-03T16:50:23.359Z,23.00
2018-08-03T16:52:51.622Z,27.83
2018-08-03T16:55:19.890Z,21.63
2018-08-03T16:57:48.105Z,23.07
2018-08-03T17:00:18.372Z,18.47
2018-08-03T17:02:46.998Z,27.03
2018-08-03T17:05:15.304Z,17.50
2018-08-03T17:07:43.571Z,22.93
2018-08-03T17:10:11.856Z,22.30
2018-08-03T17:12:40.474Z,22.30
2018-08-03T17:15:08.784Z,20.47
2018-08-03T17:17:37.088Z,19.73
2018-08-03T17:20:05.686Z,16.77
2018-08-03T17:22:33.951Z,24.53
2018-08-03T17:25:02.208Z,26.07
2018-08-03T17:27:45.262Z,20.60
2018-08-03T17:30:13.552Z,17.80
2018-08-03T17:32:41.828Z,18.57
2018-08-03T17:35:10.128Z,20.17
2018-08-03T17:37:38.513Z,21.93
2018-08-03T17:40:06.823Z,19.63
2018-08-03T17:42:35.161Z,24.40
2018-08-03T17:45:03.395Z,21.30
2018-08-03T17:47:31.738Z,21.03
2018-08-03T17:49:59.984Z,22.97
2018-08-03T17:52:28.225Z,22.97
2018-08-03T17:54:56.469Z,26.97
2018-08-03T17:57:24.815Z,19.80
2018-08-03T17:59:53.014Z,16.90
2018-08-03T18:02:21.290Z,19.13
2018-08-03T18:04:49.775Z,29.13
2018-08-03T18:07:18.027Z,24.67
2018-08-03T18:09:46.255Z,20.20
2018-08-03T18:12:14.556Z,18.97
2018-08-03T18:14:42.855Z,20.63
2018-08-03T18:17:11.145Z,51.40
2018-08-03T18:19:39.415Z,22.40
2018-08-03T18:22:07.735Z,22.53
2018-08-03T18:24:35.987Z,21.60
2018-08-03T18:27:04.191Z,19.83
2018-08-03T18:29:32.426Z,19.30
2018-08-03T18:32:00.631Z,22.20
2018-08-03T18:34:28.963Z,23.10
2018-08-03T18:36:57.235Z,17.37
2018-08-03T18:39:25.538Z,19.40
2018-08-03T18:41:53.814Z,22.63
2018-08-03T18:44:22.031Z,26.90
2018-08-03T18:46:50.304Z,22.77
2018-08-03T18:49:18.663Z,21.10
2018-08-03T18:51:46.984Z,23.63
2018-08-03T18:54:15.200Z,18.17
2018-08-03T18:56:43.422Z,19.73
2018-08-03T18:59:11.751Z,18.60
2018-08-03T19:01:40.051Z,21.13
2018-08-03T19:04:08.339Z,20.87
2018-08-03T19:06:36.626Z,30.17
2018-08-03T19:09:06.754Z,37.07
2018-08-03T19:11:35.031Z,24.20
2018-08-03T19:14:03.367Z,20.90
2018-08-03T19:16:31.766Z,26.43
2018-08-03T19:19:01.858Z,20.10
2018-08-03T19:21:30.630Z,25.37
2018-08-03T19:24:00.483Z,24.27
2018-08-03T19:26:28.738Z,43.23
2018-08-03T19:28:57.047Z,30.37
2018-08-03T19:31:25.334Z,25.83
2018-08-03T19:33:53.867Z,25.50
2018-08-03T19:36:22.129Z,22.07
2018-08-03T19:38:50.402Z,29.73
2018-08-03T19:41:18.619Z,28.00
2018-08-03T19:43:46.886Z,28.13
2018-08-03T19:46:15.188Z,22.27
2018-08-03T19:48:44.492Z,30.83
2018-08-03T19:51:12.791Z,27.93
2018-08-03T19:53:41.052Z,30.13
2018-08-03T19:56:09.351Z,26.73
2018-08-03T19:58:37.734Z,28.40
2018-08-03T20:01:06.343Z,26.13
2018-08-03T20:03:34.634Z,29.40
2018-08-03T20:06:03.038Z,35.20
2018-08-03T20:08:31.322Z,28.10
2018-08-03T20:10:59.778Z,27.93
2018-08-03T20:13:28.145Z,25.53
2018-08-03T20:15:56.379Z,26.37
2018-08-03T20:18:24.675Z,29.13
2018-08-03T20:20:52.931Z,33.93
2018-08-03T20:23:21.253Z,22.97
2018-08-03T20:25:49.526Z,29.13
2018-08-03T20:28:17.808Z,31.00
2018-08-03T20:30:46.127Z,29.57
2018-08-03T20:33:14.439Z,28.40
2018-08-03T20:35:42.779Z,25.53
2018-08-03T20:38:11.090Z,34.73
2018-08-03T20:40:39.411Z,27.03
2018-08-03T20:43:07.735Z,22.80
2018-08-03T20:45:36.120Z,34.50
2018-08-03T20:48:04.512Z,26.63
2018-08-03T20:50:32.842Z,22.30
2018-08-03T20:53:01.180Z,26.40
2018-08-03T20:55:29.612Z,29.00
2018-08-03T20:57:57.819Z,33.30
2018-08-03T21:00:26.125Z,31.00
2018-08-03T21:02:54.438Z,29.27
2018-08-03T21:05:22.847Z,33.03
2018-08-03T21:07:51.109Z,28.50
2018-08-03T21:10:19.358Z,31.50
2018-08-03T21:12:47.759Z,27.27
2018-08-03T21:15:15.953Z,30.30
2018-08-03T21:17:44.258Z,28.30
2018-08-03T21:20:12.510Z,26.43
2018-08-03T21:22:40.924Z,24.00
2018-08-03T21:25:09.569Z,30.43
2018-08-03T21:27:37.803Z,28.07
2018-08-03T21:30:07.975Z,30.80
2018-08-03T21:32:36.261Z,30.77
2018-08-03T21:35:04.762Z,30.00
2018-08-03T21:37:33.210Z,31.80
2018-08-03T21:40:01.311Z,32.30
2018-08-03T21:42:29.580Z,29.77
2018-08-03T21:44:58.016Z,29.97
2018-08-03T21:47:26.241Z,30.50
2018-08-03T21:49:54.515Z,23.67
2018-08-03T21:52:22.774Z,24.97
2018-08-03T21:54:51.092Z,29.70
2018-08-03T21:57:19.330Z,26.40
2018-08-03T21:59:47.550Z,26.80
2018-08-03T22:02:15.825Z,34.23
2018-08-03T22:04:44.186Z,32.37
2018-08-03T22:07:12.378Z,29.47
2018-08-03T22:09:40.582Z,30.37
2018-08-03T22:12:09.002Z,24.53
2018-08-03T22:14:37.195Z,26.07
2018-08-03T22:17:05.401Z,27.30
2018-08-03T22:19:33.632Z,27.90
2018-08-03T22:22:01.862Z,32.63
2018-08-03T22:24:30.155Z,27.67
2018-08-03T22:26:58.346Z,32.97
2018-08-03T22:29:26.640Z,33.23
2018-08-03T22:31:54.952Z,29.70
2018-08-03T22:34:23.201Z,29.83
2018-08-03T22:36:51.448Z,29.60
2018-08-03T22:39:19.741Z,28.67
2018-08-03T22:41:47.946Z,25.17
2018-08-03T22:44:16.191Z,25.20
2018-08-03T22:46:44.437Z,27.37
2018-08-03T22:49:12.830Z,30.97
2018-08-03T22:51:41.036Z,22.57
2018-08-03T22:54:09.282Z,22.50
2018-08-03T22:56:37.482Z,23.07
2018-08-03T22:59:05.729Z,26.17
2018-08-03T23:01:33.983Z,21.90
2018-08-03T23:04:02.299Z,28.90
2018-08-03T23:06:30.571Z,25.70
2018-08-03T23:08:58.818Z,25.03
2018-08-03T23:11:27.120Z,22.50
2018-08-03T23:13:55.416Z,23.13
2018-08-03T23:16:23.728Z,26.43
2018-08-03T23:18:52.697Z,25.83
2018-08-03T23:21:20.935Z,27.90
2018-08-03T23:23:49.151Z,27.10
2018-08-03T23:26:17.419Z,24.60
2018-08-03T23:28:45.655Z,25.13
2018-08-03T23:31:13.863Z,24.23
2018-08-03T23:37:12.709Z,28.43
2018-08-03T23:39:40.991Z,26.00
2018-08-03T23:42:09.279Z,25.10
2018-08-03T23:44:37.686Z,25.93
2018-08-03T23:47:05.971Z,26.60
2018-08-03T23:49:34.266Z,28.87
2018-08-03T23:52:02.525Z,24.43
2018-08-03T23:54:30.851Z,25.07
2018-08-03T23:56:59.192Z,27.10
2018-08-03T23:59:27.516Z,42.13
